Decatur, Iowa
Current Conditions -  °F | °C
As of 8:53 AM on Friday 19 Dec 2014 (Local Time) from KLWD Reporting Station
Haze Haze  
Wind Chill: -6°   Ceiling: 2900
Heat Index: -2°   Visibility: 4mi
Dew Point: -3°   Wind: 6mph
Humidity: 96%   Direction: 150°SSE
Pressure: 30.27"   Gusts: NA
Location:  40.74°N, 93.84°W
Report Text: KLWD 191453Z AUTO 15005KT 4SM BR FEW005 BKN029 OVC038 M02/M03 A3027 RMK AO2 SLP263 60000 T10221028 53007
Loading
Personal Weather Stations






























Interactive Weather Map New forecast layout! Learn more

10-Day Weather Forecast

Advertisements
Track Severe Weather on mobile